sensor_id;sensor_type;location;lat;lon;timestamp;P1;durP1;ratioP1;P2;durP2;ratioP2
51732;SDS011;39139;53.144;6.244;2022-08-01T00:00:11;9.95;;;8.05;;
51732;SDS011;39139;53.144;6.244;2022-08-01T00:02:38;11.35;;;7.93;;
51732;SDS011;39139;53.144;6.244;2022-08-01T00:05:04;12.73;;;8.15;;
51732;SDS011;39139;53.144;6.244;2022-08-01T00:07:31;11.93;;;8.55;;
51732;SDS011;39139;53.144;6.244;2022-08-01T00:09:58;13.45;;;8.32;;
51732;SDS011;39139;53.144;6.244;2022-08-01T00:12:23;12.02;;;8.07;;
51732;SDS011;39139;53.144;6.244;2022-08-01T00:14:49;12.82;;;7.60;;
51732;SDS011;39139;53.144;6.244;2022-08-01T00:17:15;7.85;;;6.25;;
51732;SDS011;39139;53.144;6.244;2022-08-01T00:19:40;7.05;;;6.30;;
51732;SDS011;39139;53.144;6.244;2022-08-01T00:22:06;9.80;;;6.93;;
51732;SDS011;39139;53.144;6.244;2022-08-01T00:24:32;11.45;;;6.70;;
51732;SDS011;39139;53.144;6.244;2022-08-01T00:26:58;7.90;;;6.53;;
51732;SDS011;39139;53.144;6.244;2022-08-01T00:29:24;5.90;;;4.68;;
51732;SDS011;39139;53.144;6.244;2022-08-01T00:31:49;6.68;;;5.63;;
51732;SDS011;39139;53.144;6.244;2022-08-01T00:34:15;7.07;;;5.05;;
51732;SDS011;39139;53.144;6.244;2022-08-01T00:36:41;6.20;;;5.60;;
51732;SDS011;39139;53.144;6.244;2022-08-01T00:39:06;12.88;;;6.55;;
51732;SDS011;39139;53.144;6.244;2022-08-01T00:41:32;7.22;;;5.63;;
51732;SDS011;39139;53.144;6.244;2022-08-01T00:43:57;6.80;;;6.20;;
51732;SDS011;39139;53.144;6.244;2022-08-01T00:46:23;9.52;;;6.35;;
51732;SDS011;39139;53.144;6.244;2022-08-01T00:48:48;8.13;;;6.63;;
51732;SDS011;39139;53.144;6.244;2022-08-01T00:51:14;13.68;;;7.50;;
51732;SDS011;39139;53.144;6.244;2022-08-01T00:53:40;9.27;;;7.93;;
51732;SDS011;39139;53.144;6.244;2022-08-01T00:56:06;9.60;;;6.95;;
51732;SDS011;39139;53.144;6.244;2022-08-01T00:58:32;10.15;;;7.57;;
51732;SDS011;39139;53.144;6.244;2022-08-01T01:00:59;8.60;;;7.70;;
51732;SDS011;39139;53.144;6.244;2022-08-01T01:03:25;12.60;;;7.75;;
51732;SDS011;39139;53.144;6.244;2022-08-01T01:05:54;9.73;;;8.05;;
51732;SDS011;39139;53.144;6.244;2022-08-01T01:08:43;10.05;;;8.43;;
51732;SDS011;39139;53.144;6.244;2022-08-01T01:11:20;13.80;;;9.35;;
51732;SDS011;39139;53.144;6.244;2022-08-01T01:13:52;13.02;;;7.22;;
51732;SDS011;39139;53.144;6.244;2022-08-01T01:16:25;12.60;;;8.05;;
51732;SDS011;39139;53.144;6.244;2022-08-01T01:18:55;11.77;;;7.03;;
51732;SDS011;39139;53.144;6.244;2022-08-01T01:21:31;10.98;;;5.80;;
51732;SDS011;39139;53.144;6.244;2022-08-01T01:27:21;7.45;;;4.20;;
51732;SDS011;39139;53.144;6.244;2022-08-01T01:29:57;7.90;;;3.92;;
51732;SDS011;39139;53.144;6.244;2022-08-01T01:32:31;11.07;;;2.45;;
51732;SDS011;39139;53.144;6.244;2022-08-01T01:35:01;3.33;;;2.00;;
51732;SDS011;39139;53.144;6.244;2022-08-01T01:37:30;5.95;;;1.98;;
51732;SDS011;39139;53.144;6.244;2022-08-01T01:39:59;3.88;;;2.13;;
51732;SDS011;39139;53.144;6.244;2022-08-01T01:42:27;3.58;;;1.90;;
51732;SDS011;39139;53.144;6.244;2022-08-01T01:44:55;5.88;;;1.80;;
51732;SDS011;39139;53.144;6.244;2022-08-01T01:47:22;1.63;;;1.45;;
51732;SDS011;39139;53.144;6.244;2022-08-01T01:49:49;7.07;;;1.95;;
51732;SDS011;39139;53.144;6.244;2022-08-01T01:52:17;3.90;;;1.80;;
51732;SDS011;39139;53.144;6.244;2022-08-01T01:54:45;4.47;;;2.25;;
51732;SDS011;39139;53.144;6.244;2022-08-01T01:57:13;5.85;;;2.58;;
51732;SDS011;39139;53.144;6.244;2022-08-01T01:59:40;2.22;;;2.03;;
51732;SDS011;39139;53.144;6.244;2022-08-01T02:02:07;2.88;;;2.13;;
51732;SDS011;39139;53.144;6.244;2022-08-01T02:04:37;4.88;;;2.88;;
51732;SDS011;39139;53.144;6.244;2022-08-01T02:07:07;4.63;;;2.90;;
51732;SDS011;39139;53.144;6.244;2022-08-01T02:09:35;4.82;;;3.08;;
51732;SDS011;39139;53.144;6.244;2022-08-01T02:14:31;7.82;;;3.42;;
51732;SDS011;39139;53.144;6.244;2022-08-01T02:19:28;8.57;;;5.82;;
51732;SDS011;39139;53.144;6.244;2022-08-01T02:27:15;9.27;;;4.88;;
51732;SDS011;39139;53.144;6.244;2022-08-01T02:29:50;12.43;;;4.00;;
51732;SDS011;39139;53.144;6.244;2022-08-01T02:32:23;11.63;;;5.28;;
51732;SDS011;39139;53.144;6.244;2022-08-01T02:35:20;13.52;;;5.80;;
51732;SDS011;39139;53.144;6.244;2022-08-01T02:37:51;22.17;;;5.18;;
51732;SDS011;39139;53.144;6.244;2022-08-01T02:40:18;10.65;;;3.90;;
51732;SDS011;39139;53.144;6.244;2022-08-01T02:42:45;11.45;;;4.22;;
51732;SDS011;39139;53.144;6.244;2022-08-01T02:45:18;14.15;;;3.47;;
51732;SDS011;39139;53.144;6.244;2022-08-01T02:47:47;13.65;;;4.47;;
51732;SDS011;39139;53.144;6.244;2022-08-01T02:50:14;12.25;;;4.25;;
51732;SDS011;39139;53.144;6.244;2022-08-01T02:52:42;15.20;;;4.70;;
51732;SDS011;39139;53.144;6.244;2022-08-01T02:55:10;15.85;;;3.78;;
51732;SDS011;39139;53.144;6.244;2022-08-01T02:57:38;17.95;;;3.88;;
51732;SDS011;39139;53.144;6.244;2022-08-01T03:00:05;9.00;;;3.95;;
51732;SDS011;39139;53.144;6.244;2022-08-01T03:02:32;12.00;;;4.72;;
51732;SDS011;39139;53.144;6.244;2022-08-01T03:04:59;22.25;;;4.80;;
51732;SDS011;39139;53.144;6.244;2022-08-01T03:07:27;12.68;;;5.00;;
51732;SDS011;39139;53.144;6.244;2022-08-01T03:09:55;16.60;;;4.93;;
51732;SDS011;39139;53.144;6.244;2022-08-01T03:12:24;10.13;;;4.53;;
51732;SDS011;39139;53.144;6.244;2022-08-01T03:14:53;12.60;;;4.40;;
51732;SDS011;39139;53.144;6.244;2022-08-01T03:17:22;12.13;;;4.65;;
51732;SDS011;39139;53.144;6.244;2022-08-01T03:19:50;10.43;;;5.10;;
51732;SDS011;39139;53.144;6.244;2022-08-01T03:22:17;12.85;;;4.72;;
51732;SDS011;39139;53.144;6.244;2022-08-01T03:24:47;16.75;;;6.32;;
51732;SDS011;39139;53.144;6.244;2022-08-01T03:27:16;13.85;;;5.97;;
51732;SDS011;39139;53.144;6.244;2022-08-01T03:29:44;17.47;;;6.70;;
51732;SDS011;39139;53.144;6.244;2022-08-01T03:32:11;15.05;;;5.93;;
51732;SDS011;39139;53.144;6.244;2022-08-01T03:34:38;14.73;;;5.13;;
51732;SDS011;39139;53.144;6.244;2022-08-01T03:37:24;14.02;;;5.68;;
51732;SDS011;39139;53.144;6.244;2022-08-01T03:40:10;20.55;;;5.72;;
51732;SDS011;39139;53.144;6.244;2022-08-01T03:42:44;13.45;;;4.45;;
51732;SDS011;39139;53.144;6.244;2022-08-01T03:45:19;17.10;;;4.93;;
51732;SDS011;39139;53.144;6.244;2022-08-01T03:47:52;26.38;;;6.13;;
51732;SDS011;39139;53.144;6.244;2022-08-01T03:50:23;17.02;;;4.53;;
51732;SDS011;39139;53.144;6.244;2022-08-01T03:52:50;17.08;;;4.95;;
51732;SDS011;39139;53.144;6.244;2022-08-01T03:55:16;31.73;;;6.07;;
51732;SDS011;39139;53.144;6.244;2022-08-01T03:57:45;18.80;;;5.13;;
51732;SDS011;39139;53.144;6.244;2022-08-01T04:00:13;26.17;;;5.45;;
51732;SDS011;39139;53.144;6.244;2022-08-01T04:02:43;20.98;;;5.10;;
51732;SDS011;39139;53.144;6.244;2022-08-01T04:05:11;24.45;;;5.45;;
51732;SDS011;39139;53.144;6.244;2022-08-01T04:07:36;21.33;;;5.10;;
51732;SDS011;39139;53.144;6.244;2022-08-01T04:10:04;16.33;;;4.97;;
51732;SDS011;39139;53.144;6.244;2022-08-01T04:12:31;16.55;;;4.25;;
51732;SDS011;39139;53.144;6.244;2022-08-01T04:14:57;20.23;;;4.30;;
51732;SDS011;39139;53.144;6.244;2022-08-01T04:17:23;24.90;;;5.07;;
51732;SDS011;39139;53.144;6.244;2022-08-01T04:19:49;23.08;;;5.38;;
51732;SDS011;39139;53.144;6.244;2022-08-01T04:22:15;19.95;;;3.78;;
51732;SDS011;39139;53.144;6.244;2022-08-01T04:24:42;21.60;;;4.72;;
51732;SDS011;39139;53.144;6.244;2022-08-01T04:27:16;21.38;;;5.05;;
51732;SDS011;39139;53.144;6.244;2022-08-01T04:29:46;18.83;;;4.43;;
51732;SDS011;39139;53.144;6.244;2022-08-01T04:32:15;19.77;;;4.50;;
51732;SDS011;39139;53.144;6.244;2022-08-01T04:34:42;21.15;;;4.32;;
51732;SDS011;39139;53.144;6.244;2022-08-01T04:37:11;18.77;;;4.35;;
51732;SDS011;39139;53.144;6.244;2022-08-01T04:39:39;20.23;;;4.38;;
51732;SDS011;39139;53.144;6.244;2022-08-01T04:42:06;19.25;;;5.13;;
51732;SDS011;39139;53.144;6.244;2022-08-01T04:44:33;21.13;;;5.50;;
51732;SDS011;39139;53.144;6.244;2022-08-01T04:46:59;25.45;;;4.60;;
51732;SDS011;39139;53.144;6.244;2022-08-01T04:49:28;21.13;;;4.18;;
51732;SDS011;39139;53.144;6.244;2022-08-01T04:51:56;18.90;;;4.50;;
51732;SDS011;39139;53.144;6.244;2022-08-01T04:54:28;20.55;;;4.32;;
51732;SDS011;39139;53.144;6.244;2022-08-01T04:56:58;15.93;;;3.42;;
51732;SDS011;39139;53.144;6.244;2022-08-01T04:59:28;21.83;;;5.05;;
51732;SDS011;39139;53.144;6.244;2022-08-01T05:02:08;16.67;;;4.13;;
51732;SDS011;39139;53.144;6.244;2022-08-01T05:04:43;19.80;;;3.95;;
51732;SDS011;39139;53.144;6.244;2022-08-01T05:07:11;23.60;;;3.83;;
51732;SDS011;39139;53.144;6.244;2022-08-01T05:09:37;22.80;;;4.20;;
51732;SDS011;39139;53.144;6.244;2022-08-01T05:12:06;25.25;;;4.20;;
51732;SDS011;39139;53.144;6.244;2022-08-01T05:14:32;21.50;;;4.72;;
51732;SDS011;39139;53.144;6.244;2022-08-01T05:17:02;22.63;;;4.35;;
51732;SDS011;39139;53.144;6.244;2022-08-01T05:19:35;22.23;;;4.03;;
51732;SDS011;39139;53.144;6.244;2022-08-01T05:22:03;23.90;;;4.30;;
51732;SDS011;39139;53.144;6.244;2022-08-01T05:24:33;28.45;;;4.95;;
51732;SDS011;39139;53.144;6.244;2022-08-01T05:27:00;18.27;;;3.70;;
51732;SDS011;39139;53.144;6.244;2022-08-01T05:29:26;20.10;;;4.13;;
51732;SDS011;39139;53.144;6.244;2022-08-01T05:31:52;14.18;;;4.50;;
51732;SDS011;39139;53.144;6.244;2022-08-01T05:34:18;20.02;;;4.32;;
51732;SDS011;39139;53.144;6.244;2022-08-01T05:36:44;24.67;;;4.43;;
51732;SDS011;39139;53.144;6.244;2022-08-01T05:39:11;20.55;;;4.10;;
51732;SDS011;39139;53.144;6.244;2022-08-01T05:41:37;21.55;;;4.10;;
51732;SDS011;39139;53.144;6.244;2022-08-01T05:44:04;22.42;;;4.93;;
51732;SDS011;39139;53.144;6.244;2022-08-01T05:46:29;17.95;;;4.18;;
51732;SDS011;39139;53.144;6.244;2022-08-01T05:48:56;21.88;;;5.40;;
51732;SDS011;39139;53.144;6.244;2022-08-01T05:51:22;21.77;;;4.72;;
51732;SDS011;39139;53.144;6.244;2022-08-01T05:53:48;19.08;;;4.53;;
51732;SDS011;39139;53.144;6.244;2022-08-01T05:56:13;16.75;;;4.18;;
51732;SDS011;39139;53.144;6.244;2022-08-01T05:58:39;19.73;;;3.85;;
51732;SDS011;39139;53.144;6.244;2022-08-01T06:01:05;22.02;;;4.55;;
51732;SDS011;39139;53.144;6.244;2022-08-01T06:03:30;16.70;;;4.45;;
51732;SDS011;39139;53.144;6.244;2022-08-01T06:05:58;20.65;;;4.00;;
51732;SDS011;39139;53.144;6.244;2022-08-01T06:08:24;19.98;;;4.03;;
51732;SDS011;39139;53.144;6.244;2022-08-01T06:10:49;19.77;;;3.75;;
51732;SDS011;39139;53.144;6.244;2022-08-01T06:13:15;13.43;;;3.72;;
51732;SDS011;39139;53.144;6.244;2022-08-01T06:15:41;24.30;;;4.90;;
51732;SDS011;39139;53.144;6.244;2022-08-01T06:18:07;17.67;;;3.70;;
51732;SDS011;39139;53.144;6.244;2022-08-01T06:20:32;23.92;;;4.88;;
51732;SDS011;39139;53.144;6.244;2022-08-01T06:22:58;22.48;;;4.97;;
51732;SDS011;39139;53.144;6.244;2022-08-01T06:25:24;18.67;;;4.07;;
51732;SDS011;39139;53.144;6.244;2022-08-01T06:27:49;17.73;;;4.47;;
51732;SDS011;39139;53.144;6.244;2022-08-01T06:30:15;21.15;;;5.40;;
51732;SDS011;39139;53.144;6.244;2022-08-01T06:32:41;16.45;;;4.10;;
51732;SDS011;39139;53.144;6.244;2022-08-01T06:35:06;15.32;;;4.40;;
51732;SDS011;39139;53.144;6.244;2022-08-01T06:37:32;18.23;;;5.03;;
51732;SDS011;39139;53.144;6.244;2022-08-01T06:40:05;21.58;;;4.50;;
51732;SDS011;39139;53.144;6.244;2022-08-01T06:42:33;19.17;;;3.65;;
51732;SDS011;39139;53.144;6.244;2022-08-01T06:47:28;14.00;;;3.50;;
51732;SDS011;39139;53.144;6.244;2022-08-01T06:49:54;14.57;;;3.90;;
51732;SDS011;39139;53.144;6.244;2022-08-01T06:52:20;17.08;;;3.53;;
51732;SDS011;39139;53.144;6.244;2022-08-01T06:54:45;19.00;;;4.07;;
51732;SDS011;39139;53.144;6.244;2022-08-01T06:57:11;19.83;;;3.97;;
51732;SDS011;39139;53.144;6.244;2022-08-01T06:59:37;18.50;;;3.75;;
51732;SDS011;39139;53.144;6.244;2022-08-01T07:02:02;15.32;;;2.95;;
51732;SDS011;39139;53.144;6.244;2022-08-01T07:04:28;18.58;;;3.00;;
51732;SDS011;39139;53.144;6.244;2022-08-01T07:06:54;14.57;;;3.42;;
51732;SDS011;39139;53.144;6.244;2022-08-01T07:09:19;12.57;;;2.53;;
51732;SDS011;39139;53.144;6.244;2022-08-01T07:11:45;16.33;;;2.28;;
51732;SDS011;39139;53.144;6.244;2022-08-01T07:14:11;10.32;;;2.80;;
51732;SDS011;39139;53.144;6.244;2022-08-01T07:16:36;9.25;;;2.13;;
51732;SDS011;39139;53.144;6.244;2022-08-01T07:19:02;14.85;;;2.65;;
51732;SDS011;39139;53.144;6.244;2022-08-01T07:21:28;15.18;;;2.85;;
51732;SDS011;39139;53.144;6.244;2022-08-01T07:23:53;17.75;;;2.53;;
51732;SDS011;39139;53.144;6.244;2022-08-01T07:26:19;15.88;;;2.80;;
51732;SDS011;39139;53.144;6.244;2022-08-01T07:28:45;11.13;;;2.97;;
51732;SDS011;39139;53.144;6.244;2022-08-01T07:31:10;14.07;;;2.30;;
51732;SDS011;39139;53.144;6.244;2022-08-01T07:33:36;14.30;;;2.40;;
51732;SDS011;39139;53.144;6.244;2022-08-01T07:36:02;11.98;;;2.40;;
51732;SDS011;39139;53.144;6.244;2022-08-01T07:38:28;12.25;;;2.47;;
51732;SDS011;39139;53.144;6.244;2022-08-01T07:40:54;12.05;;;2.58;;
51732;SDS011;39139;53.144;6.244;2022-08-01T07:43:20;8.18;;;2.22;;
51732;SDS011;39139;53.144;6.244;2022-08-01T07:45:45;16.95;;;2.83;;
51732;SDS011;39139;53.144;6.244;2022-08-01T07:48:11;17.45;;;2.90;;
51732;SDS011;39139;53.144;6.244;2022-08-01T07:50:36;12.80;;;2.47;;
51732;SDS011;39139;53.144;6.244;2022-08-01T07:53:02;14.27;;;2.33;;
51732;SDS011;39139;53.144;6.244;2022-08-01T07:55:29;14.55;;;2.47;;
51732;SDS011;39139;53.144;6.244;2022-08-01T07:57:54;12.52;;;2.30;;
51732;SDS011;39139;53.144;6.244;2022-08-01T08:00:20;13.40;;;1.90;;
51732;SDS011;39139;53.144;6.244;2022-08-01T08:02:46;10.57;;;2.10;;
51732;SDS011;39139;53.144;6.244;2022-08-01T08:05:11;11.07;;;2.13;;
51732;SDS011;39139;53.144;6.244;2022-08-01T08:07:37;16.02;;;2.08;;
51732;SDS011;39139;53.144;6.244;2022-08-01T08:10:04;12.90;;;1.98;;
51732;SDS011;39139;53.144;6.244;2022-08-01T08:12:30;8.80;;;1.77;;
51732;SDS011;39139;53.144;6.244;2022-08-01T08:14:57;13.70;;;2.00;;
51732;SDS011;39139;53.144;6.244;2022-08-01T08:19:51;8.75;;;1.85;;
51732;SDS011;39139;53.144;6.244;2022-08-01T08:22:17;13.80;;;2.05;;
51732;SDS011;39139;53.144;6.244;2022-08-01T08:24:43;14.02;;;2.40;;
51732;SDS011;39139;53.144;6.244;2022-08-01T08:27:08;11.85;;;1.58;;
51732;SDS011;39139;53.144;6.244;2022-08-01T08:29:34;10.82;;;1.80;;
51732;SDS011;39139;53.144;6.244;2022-08-01T08:32:00;14.93;;;2.38;;
51732;SDS011;39139;53.144;6.244;2022-08-01T08:34:26;12.10;;;2.20;;
51732;SDS011;39139;53.144;6.244;2022-08-01T08:36:53;10.32;;;2.38;;
51732;SDS011;39139;53.144;6.244;2022-08-01T08:39:20;11.45;;;2.05;;
51732;SDS011;39139;53.144;6.244;2022-08-01T08:41:46;12.18;;;1.75;;
51732;SDS011;39139;53.144;6.244;2022-08-01T08:44:12;8.65;;;2.08;;
51732;SDS011;39139;53.144;6.244;2022-08-01T08:46:42;10.48;;;1.98;;
51732;SDS011;39139;53.144;6.244;2022-08-01T08:49:09;9.48;;;1.33;;
51732;SDS011;39139;53.144;6.244;2022-08-01T08:51:39;5.57;;;1.27;;
51732;SDS011;39139;53.144;6.244;2022-08-01T08:54:07;9.10;;;1.45;;
51732;SDS011;39139;53.144;6.244;2022-08-01T08:56:37;7.25;;;1.55;;
51732;SDS011;39139;53.144;6.244;2022-08-01T08:59:03;6.40;;;1.45;;
51732;SDS011;39139;53.144;6.244;2022-08-01T09:01:30;10.60;;;2.25;;
51732;SDS011;39139;53.144;6.244;2022-08-01T09:04:00;7.40;;;1.77;;
51732;SDS011;39139;53.144;6.244;2022-08-01T09:06:28;9.18;;;2.50;;
51732;SDS011;39139;53.144;6.244;2022-08-01T09:08:54;9.52;;;1.95;;
51732;SDS011;39139;53.144;6.244;2022-08-01T09:11:21;6.50;;;1.60;;
51732;SDS011;39139;53.144;6.244;2022-08-01T09:16:36;10.55;;;2.10;;
51732;SDS011;39139;53.144;6.244;2022-08-01T09:21:35;8.32;;;1.77;;
51732;SDS011;39139;53.144;6.244;2022-08-01T09:24:01;6.72;;;2.03;;
51732;SDS011;39139;53.144;6.244;2022-08-01T09:26:32;10.20;;;1.40;;
51732;SDS011;39139;53.144;6.244;2022-08-01T09:29:00;7.32;;;1.70;;
51732;SDS011;39139;53.144;6.244;2022-08-01T09:33:59;7.13;;;1.65;;
51732;SDS011;39139;53.144;6.244;2022-08-01T09:39:27;7.43;;;1.90;;
51732;SDS011;39139;53.144;6.244;2022-08-01T09:41:54;9.23;;;1.40;;
51732;SDS011;39139;53.144;6.244;2022-08-01T09:44:38;6.85;;;1.13;;
51732;SDS011;39139;53.144;6.244;2022-08-01T09:47:05;8.07;;;1.60;;
51732;SDS011;39139;53.144;6.244;2022-08-01T09:49:31;11.30;;;1.98;;
51732;SDS011;39139;53.144;6.244;2022-08-01T09:54:40;7.70;;;1.55;;
51732;SDS011;39139;53.144;6.244;2022-08-01T09:57:14;8.07;;;1.52;;
51732;SDS011;39139;53.144;6.244;2022-08-01T09:59:43;6.70;;;1.42;;
51732;SDS011;39139;53.144;6.244;2022-08-01T10:02:10;9.60;;;1.23;;
51732;SDS011;39139;53.144;6.244;2022-08-01T10:04:47;7.55;;;0.98;;
51732;SDS011;39139;53.144;6.244;2022-08-01T10:07:14;9.50;;;2.47;;
51732;SDS011;39139;53.144;6.244;2022-08-01T10:09:43;8.05;;;1.50;;
51732;SDS011;39139;53.144;6.244;2022-08-01T10:12:10;4.82;;;1.17;;
51732;SDS011;39139;53.144;6.244;2022-08-01T10:14:38;7.60;;;1.10;;
51732;SDS011;39139;53.144;6.244;2022-08-01T10:17:06;5.05;;;1.08;;
51732;SDS011;39139;53.144;6.244;2022-08-01T10:19:33;7.53;;;1.35;;
51732;SDS011;39139;53.144;6.244;2022-08-01T10:22:00;7.20;;;1.65;;
51732;SDS011;39139;53.144;6.244;2022-08-01T10:24:29;7.30;;;1.33;;
51732;SDS011;39139;53.144;6.244;2022-08-01T10:26:59;9.25;;;1.33;;
51732;SDS011;39139;53.144;6.244;2022-08-01T10:29:30;7.18;;;1.20;;
51732;SDS011;39139;53.144;6.244;2022-08-01T10:31:59;7.80;;;1.20;;
51732;SDS011;39139;53.144;6.244;2022-08-01T10:34:25;9.75;;;1.20;;
51732;SDS011;39139;53.144;6.244;2022-08-01T10:36:52;8.20;;;1.10;;
51732;SDS011;39139;53.144;6.244;2022-08-01T10:39:18;7.90;;;1.85;;
51732;SDS011;39139;53.144;6.244;2022-08-01T10:41:45;8.73;;;1.20;;
51732;SDS011;39139;53.144;6.244;2022-08-01T10:44:11;6.50;;;1.30;;
51732;SDS011;39139;53.144;6.244;2022-08-01T10:46:37;7.55;;;1.17;;
51732;SDS011;39139;53.144;6.244;2022-08-01T10:49:05;6.65;;;0.98;;
51732;SDS011;39139;53.144;6.244;2022-08-01T10:51:35;8.80;;;1.10;;
51732;SDS011;39139;53.144;6.244;2022-08-01T10:54:07;9.48;;;1.75;;
51732;SDS011;39139;53.144;6.244;2022-08-01T10:59:14;7.35;;;1.08;;
51732;SDS011;39139;53.144;6.244;2022-08-01T11:01:58;6.03;;;1.13;;
51732;SDS011;39139;53.144;6.244;2022-08-01T11:04:50;5.53;;;1.20;;
51732;SDS011;39139;53.144;6.244;2022-08-01T11:07:21;11.30;;;1.50;;
51732;SDS011;39139;53.144;6.244;2022-08-01T11:10:05;11.45;;;1.42;;
51732;SDS011;39139;53.144;6.244;2022-08-01T11:12:39;7.80;;;1.48;;
51732;SDS011;39139;53.144;6.244;2022-08-01T11:17:34;7.85;;;1.33;;
51732;SDS011;39139;53.144;6.244;2022-08-01T11:20:28;5.63;;;1.48;;
51732;SDS011;39139;53.144;6.244;2022-08-01T11:26:11;6.85;;;1.40;;
51732;SDS011;39139;53.144;6.244;2022-08-01T11:30:42;8.38;;;1.02;;
51732;SDS011;39139;53.144;6.244;2022-08-01T11:33:13;4.45;;;0.80;;
51732;SDS011;39139;53.144;6.244;2022-08-01T11:41:17;9.18;;;1.20;;
51732;SDS011;39139;53.144;6.244;2022-08-01T11:44:02;4.25;;;0.80;;
51732;SDS011;39139;53.144;6.244;2022-08-01T11:49:31;3.55;;;0.98;;
51732;SDS011;39139;53.144;6.244;2022-08-01T11:52:07;8.57;;;1.10;;
51732;SDS011;39139;53.144;6.244;2022-08-01T11:54:45;5.57;;;1.38;;
51732;SDS011;39139;53.144;6.244;2022-08-01T11:57:28;4.72;;;0.60;;
51732;SDS011;39139;53.144;6.244;2022-08-01T11:59:56;6.25;;;0.80;;
51732;SDS011;39139;53.144;6.244;2022-08-01T12:02:27;8.32;;;1.20;;
51732;SDS011;39139;53.144;6.244;2022-08-01T12:04:56;7.13;;;1.33;;
51732;SDS011;39139;53.144;6.244;2022-08-01T12:07:23;4.30;;;0.90;;
51732;SDS011;39139;53.144;6.244;2022-08-01T12:10:01;5.93;;;1.08;;
51732;SDS011;39139;53.144;6.244;2022-08-01T12:12:30;5.25;;;1.33;;
51732;SDS011;39139;53.144;6.244;2022-08-01T12:14:57;4.78;;;1.02;;
51732;SDS011;39139;53.144;6.244;2022-08-01T12:17:44;3.90;;;0.70;;
51732;SDS011;39139;53.144;6.244;2022-08-01T12:20:15;9.63;;;1.02;;
51732;SDS011;39139;53.144;6.244;2022-08-01T12:22:44;9.13;;;1.13;;
51732;SDS011;39139;53.144;6.244;2022-08-01T12:27:37;2.33;;;0.93;;
51732;SDS011;39139;53.144;6.244;2022-08-01T12:30:05;2.92;;;0.60;;
51732;SDS011;39139;53.144;6.244;2022-08-01T12:32:33;7.75;;;0.93;;
51732;SDS011;39139;53.144;6.244;2022-08-01T12:37:38;6.63;;;0.63;;
51732;SDS011;39139;53.144;6.244;2022-08-01T12:40:18;4.80;;;1.13;;
51732;SDS011;39139;53.144;6.244;2022-08-01T12:42:55;5.90;;;0.75;;
51732;SDS011;39139;53.144;6.244;2022-08-01T12:45:36;6.40;;;1.40;;
51732;SDS011;39139;53.144;6.244;2022-08-01T12:48:10;4.03;;;0.40;;
51732;SDS011;39139;53.144;6.244;2022-08-01T12:50:38;2.65;;;0.82;;
51732;SDS011;39139;53.144;6.244;2022-08-01T12:53:07;4.97;;;0.90;;
51732;SDS011;39139;53.144;6.244;2022-08-01T12:55:40;7.28;;;1.85;;
51732;SDS011;39139;53.144;6.244;2022-08-01T12:58:14;7.47;;;1.13;;
51732;SDS011;39139;53.144;6.244;2022-08-01T13:00:42;11.95;;;1.30;;
51732;SDS011;39139;53.144;6.244;2022-08-01T13:03:11;9.50;;;1.23;;
51732;SDS011;39139;53.144;6.244;2022-08-01T13:08:23;3.95;;;0.73;;
51732;SDS011;39139;53.144;6.244;2022-08-01T13:10:49;6.60;;;1.30;;
51732;SDS011;39139;53.144;6.244;2022-08-01T13:13:24;5.65;;;0.70;;
51732;SDS011;39139;53.144;6.244;2022-08-01T13:16:04;5.50;;;0.77;;
51732;SDS011;39139;53.144;6.244;2022-08-01T13:18:32;7.28;;;1.33;;
51732;SDS011;39139;53.144;6.244;2022-08-01T13:21:09;4.70;;;1.02;;
51732;SDS011;39139;53.144;6.244;2022-08-01T13:23:36;11.48;;;1.30;;
51732;SDS011;39139;53.144;6.244;2022-08-01T13:26:03;4.40;;;1.00;;
51732;SDS011;39139;53.144;6.244;2022-08-01T13:28:28;4.72;;;1.10;;
51732;SDS011;39139;53.144;6.244;2022-08-01T13:33:43;5.25;;;1.00;;
51732;SDS011;39139;53.144;6.244;2022-08-01T13:36:11;2.53;;;0.82;;
51732;SDS011;39139;53.144;6.244;2022-08-01T13:38:38;4.43;;;1.35;;
51732;SDS011;39139;53.144;6.244;2022-08-01T13:41:22;6.07;;;0.63;;
51732;SDS011;39139;53.144;6.244;2022-08-01T13:43:48;5.38;;;0.60;;
51732;SDS011;39139;53.144;6.244;2022-08-01T13:46:14;3.60;;;0.88;;
51732;SDS011;39139;53.144;6.244;2022-08-01T13:48:40;5.43;;;0.80;;
51732;SDS011;39139;53.144;6.244;2022-08-01T13:51:06;7.68;;;1.10;;
51732;SDS011;39139;53.144;6.244;2022-08-01T13:53:32;4.13;;;1.00;;
51732;SDS011;39139;53.144;6.244;2022-08-01T13:55:57;3.97;;;1.00;;
51732;SDS011;39139;53.144;6.244;2022-08-01T13:58:23;3.58;;;0.93;;
51732;SDS011;39139;53.144;6.244;2022-08-01T14:00:49;5.50;;;0.85;;
51732;SDS011;39139;53.144;6.244;2022-08-01T14:03:14;3.33;;;0.90;;
51732;SDS011;39139;53.144;6.244;2022-08-01T14:05:42;6.22;;;0.90;;
51732;SDS011;39139;53.144;6.244;2022-08-01T14:08:08;3.53;;;0.88;;
51732;SDS011;39139;53.144;6.244;2022-08-01T14:10:34;6.45;;;0.70;;
51732;SDS011;39139;53.144;6.244;2022-08-01T14:13:00;4.90;;;1.17;;
51732;SDS011;39139;53.144;6.244;2022-08-01T14:15:25;6.63;;;1.10;;
51732;SDS011;39139;53.144;6.244;2022-08-01T14:17:51;5.22;;;1.33;;
51732;SDS011;39139;53.144;6.244;2022-08-01T14:20:17;5.28;;;0.80;;
51732;SDS011;39139;53.144;6.244;2022-08-01T14:22:46;6.70;;;0.97;;
51732;SDS011;39139;53.144;6.244;2022-08-01T14:25:12;10.75;;;1.55;;
51732;SDS011;39139;53.144;6.244;2022-08-01T14:27:38;7.68;;;0.90;;
51732;SDS011;39139;53.144;6.244;2022-08-01T14:30:05;4.68;;;1.00;;
51732;SDS011;39139;53.144;6.244;2022-08-01T14:32:31;5.18;;;0.90;;
51732;SDS011;39139;53.144;6.244;2022-08-01T14:34:58;4.82;;;0.77;;
51732;SDS011;39139;53.144;6.244;2022-08-01T14:37:24;3.35;;;0.80;;
51732;SDS011;39139;53.144;6.244;2022-08-01T14:39:50;5.40;;;1.00;;
51732;SDS011;39139;53.144;6.244;2022-08-01T14:42:15;6.95;;;1.10;;
51732;SDS011;39139;53.144;6.244;2022-08-01T14:44:41;5.85;;;1.23;;
51732;SDS011;39139;53.144;6.244;2022-08-01T14:47:07;8.57;;;0.80;;
51732;SDS011;39139;53.144;6.244;2022-08-01T14:49:32;6.80;;;1.00;;
51732;SDS011;39139;53.144;6.244;2022-08-01T14:51:58;4.72;;;0.80;;
51732;SDS011;39139;53.144;6.244;2022-08-01T14:54:24;3.83;;;0.95;;
51732;SDS011;39139;53.144;6.244;2022-08-01T14:56:49;5.65;;;1.00;;
51732;SDS011;39139;53.144;6.244;2022-08-01T14:59:17;4.88;;;0.63;;
51732;SDS011;39139;53.144;6.244;2022-08-01T15:01:43;8.73;;;1.10;;
51732;SDS011;39139;53.144;6.244;2022-08-01T15:04:09;6.10;;;0.80;;
51732;SDS011;39139;53.144;6.244;2022-08-01T15:06:35;4.65;;;0.88;;
51732;SDS011;39139;53.144;6.244;2022-08-01T15:09:00;6.35;;;1.02;;
51732;SDS011;39139;53.144;6.244;2022-08-01T15:11:26;3.83;;;0.85;;
51732;SDS011;39139;53.144;6.244;2022-08-01T15:13:52;3.67;;;1.35;;
51732;SDS011;39139;53.144;6.244;2022-08-01T15:16:36;5.75;;;0.73;;
51732;SDS011;39139;53.144;6.244;2022-08-01T15:19:03;5.32;;;1.00;;
51732;SDS011;39139;53.144;6.244;2022-08-01T15:21:29;5.45;;;0.75;;
51732;SDS011;39139;53.144;6.244;2022-08-01T15:23:54;4.72;;;1.20;;
51732;SDS011;39139;53.144;6.244;2022-08-01T15:26:20;3.28;;;0.57;;
51732;SDS011;39139;53.144;6.244;2022-08-01T15:28:46;5.50;;;0.98;;
51732;SDS011;39139;53.144;6.244;2022-08-01T15:31:11;5.10;;;0.98;;
51732;SDS011;39139;53.144;6.244;2022-08-01T15:33:37;11.65;;;1.00;;
51732;SDS011;39139;53.144;6.244;2022-08-01T15:36:03;5.07;;;0.75;;
51732;SDS011;39139;53.144;6.244;2022-08-01T15:38:29;5.22;;;1.50;;
51732;SDS011;39139;53.144;6.244;2022-08-01T15:40:55;6.90;;;1.00;;
51732;SDS011;39139;53.144;6.244;2022-08-01T15:43:20;6.70;;;1.27;;
51732;SDS011;39139;53.144;6.244;2022-08-01T15:45:46;9.05;;;1.30;;
51732;SDS011;39139;53.144;6.244;2022-08-01T15:48:12;7.53;;;1.23;;